createdAt,value
2019-04-11T00:01:36.794Z,66.80
2019-04-11T00:03:59.655Z,67.00
2019-04-11T00:06:28.334Z,67.00
2019-04-11T00:08:56.733Z,67.00
2019-04-11T00:11:26.004Z,67.00
2019-04-11T00:13:55.610Z,67.00
2019-04-11T00:16:25.458Z,67.10
2019-04-11T00:18:54.732Z,67.10
2019-04-11T00:21:23.227Z,67.30
2019-04-11T00:23:51.644Z,67.30
2019-04-11T00:26:20.212Z,67.50
2019-04-11T00:28:49.956Z,67.60
2019-04-11T00:31:18.899Z,67.60
2019-04-11T00:33:48.671Z,67.70
2019-04-11T00:36:17.223Z,67.80
2019-04-11T00:38:45.779Z,67.80
2019-04-11T00:41:15.413Z,67.70
2019-04-11T00:43:45.382Z,67.60
2019-04-11T00:46:14.250Z,67.60
2019-04-11T00:48:42.648Z,67.80
2019-04-11T00:51:12.153Z,68.10
2019-04-11T00:53:40.554Z,67.90
2019-04-11T00:56:09.758Z,67.90
2019-04-11T00:58:39.247Z,67.80
2019-04-11T01:01:07.642Z,67.70
2019-04-11T01:03:36.063Z,67.80
2019-04-11T01:06:05.718Z,67.80
2019-04-11T01:08:34.201Z,67.50
2019-04-11T01:11:03.623Z,67.50
2019-04-11T01:13:42.558Z,67.40
2019-04-11T01:16:04.965Z,67.60
2019-04-11T01:18:33.993Z,67.60
2019-04-11T01:23:42.916Z,67.50
2019-04-11T01:26:11.454Z,67.90
2019-04-11T01:28:39.854Z,68.00
2019-04-11T01:31:09.903Z,68.00
2019-04-11T01:33:38.493Z,68.20
2019-04-11T01:36:07.056Z,68.50
2019-04-11T01:38:37.229Z,68.70
2019-04-11T01:41:06.584Z,68.90
2019-04-11T01:43:38.002Z,69.20
2019-04-11T01:46:07.711Z,69.50
2019-04-11T01:48:37.824Z,69.80
2019-04-11T01:51:07.443Z,69.80
2019-04-11T01:53:37.256Z,70.00
2019-04-11T01:56:07.144Z,70.10
2019-04-11T01:58:35.827Z,70.60
2019-04-11T02:01:06.353Z,70.90
2019-04-11T02:03:36.596Z,71.30
2019-04-11T02:06:05.477Z,71.60
2019-04-11T02:08:33.919Z,72.00
2019-04-11T02:11:03.374Z,72.10
2019-04-11T02:13:32.148Z,72.60
2019-04-11T02:16:01.425Z,72.50
2019-04-11T02:18:29.894Z,72.80
2019-04-11T02:20:58.385Z,73.20
2019-04-11T02:23:28.886Z,73.50
2019-04-11T02:25:58.989Z,73.50
2019-04-11T02:28:28.496Z,73.80
2019-04-11T02:30:57.672Z,73.90
2019-04-11T02:33:26.894Z,74.00
2019-04-11T02:35:56.671Z,74.00
2019-04-11T02:38:25.711Z,74.40
2019-04-11T02:40:55.066Z,74.50
2019-04-11T02:43:25.645Z,74.90
2019-04-11T02:46:09.065Z,75.10
2019-04-11T02:48:26.719Z,75.30
2019-04-11T02:50:56.562Z,75.40
2019-04-11T02:53:26.722Z,75.70
2019-04-11T02:55:58.325Z,75.80
2019-04-11T02:58:27.974Z,75.80
2019-04-11T03:01:00.376Z,75.80
2019-04-11T03:03:29.747Z,76.00
2019-04-11T03:05:59.906Z,76.20
2019-04-11T03:08:31.915Z,76.00
2019-04-11T03:10:59.494Z,76.40
2019-04-11T03:13:29.431Z,76.30
2019-04-11T03:16:11.407Z,76.40
2019-04-11T03:18:45.777Z,76.60
2019-04-11T03:21:04.488Z,76.70
2019-04-11T03:23:28.906Z,77.00
2019-04-11T03:25:57.441Z,77.20
2019-04-11T03:28:30.622Z,77.30
2019-04-11T03:31:26.606Z,77.50
2019-04-11T03:34:30.560Z,77.50
2019-04-11T03:36:50.598Z,77.40
2019-04-11T03:38:55.121Z,77.60
2019-04-11T03:41:17.553Z,77.60
2019-04-11T03:43:39.466Z,78.00
2019-04-11T03:46:20.237Z,77.80
2019-04-11T03:48:43.762Z,77.90
2019-04-11T03:51:01.917Z,78.10
2019-04-11T03:53:32.469Z,78.30
2019-04-11T03:56:01.712Z,78.40
2019-04-11T03:58:33.078Z,78.50
2019-04-11T04:01:05.537Z,78.70
2019-04-11T04:03:32.020Z,78.70
2019-04-11T04:06:01.950Z,78.80
2019-04-11T04:08:31.446Z,78.80
2019-04-11T04:11:03.826Z,78.50
2019-04-11T04:13:34.433Z,78.50
2019-04-11T04:16:17.068Z,78.80
2019-04-11T04:18:37.958Z,78.90
2019-04-11T04:21:10.552Z,79.20
2019-04-11T04:23:40.883Z,79.50
2019-04-11T04:26:10.526Z,79.60
2019-04-11T04:28:40.887Z,79.50
2019-04-11T04:31:11.297Z,79.90
2019-04-11T04:33:40.148Z,79.60
2019-04-11T04:36:10.710Z,79.60
2019-04-11T04:38:41.459Z,79.90
2019-04-11T04:41:22.452Z,80.30
2019-04-11T04:43:44.324Z,80.50
2019-04-11T04:46:31.313Z,80.40
2019-04-11T04:48:44.746Z,80.50
2019-04-11T04:51:15.523Z,80.70
2019-04-11T04:53:45.067Z,80.60
2019-04-11T04:56:15.409Z,80.80
2019-04-11T04:58:44.346Z,80.70
2019-04-11T05:01:14.980Z,80.80
2019-04-11T05:03:44.690Z,81.00
2019-04-11T05:06:14.204Z,80.90
2019-04-11T05:08:43.054Z,81.10
2019-04-11T05:11:11.686Z,81.00
2019-04-11T05:13:41.268Z,81.10
2019-04-11T05:16:17.187Z,80.50
2019-04-11T05:18:40.450Z,80.90
2019-04-11T05:21:08.860Z,80.60
2019-04-11T05:23:37.463Z,80.80
2019-04-11T05:26:06.891Z,80.70
2019-04-11T05:28:35.422Z,80.80
2019-04-11T05:31:03.848Z,80.60
2019-04-11T05:33:32.250Z,80.50
2019-04-11T05:36:00.670Z,80.50
2019-04-11T05:38:29.325Z,80.40
2019-04-11T05:40:58.554Z,80.20
2019-04-11T05:43:31.461Z,79.90
2019-04-11T05:45:58.237Z,79.60
2019-04-11T05:48:28.650Z,79.70
2019-04-11T05:50:58.235Z,79.80
2019-04-11T05:53:27.848Z,79.70
2019-04-11T05:55:58.031Z,79.20
2019-04-11T05:58:28.245Z,79.00
2019-04-11T06:00:59.564Z,79.00
2019-04-11T06:03:28.366Z,79.30
2019-04-11T06:06:00.449Z,79.00
2019-04-11T06:08:30.367Z,79.10
2019-04-11T06:11:02.875Z,78.40
2019-04-11T06:13:32.682Z,79.00
2019-04-11T06:16:02.849Z,78.10
2019-04-11T06:18:37.196Z,77.70
2019-04-11T06:21:04.666Z,75.80
2019-04-11T06:23:35.106Z,71.40
2019-04-11T06:26:06.687Z,66.70
2019-04-11T06:28:36.134Z,61.00
2019-04-11T06:31:07.528Z,57.70
2019-04-11T06:33:37.863Z,55.70
2019-04-11T06:36:07.954Z,52.90
2019-04-11T06:38:38.671Z,48.90
2019-04-11T06:41:08.726Z,50.10
2019-04-11T06:43:38.790Z,49.80
2019-04-11T06:46:09.112Z,51.40
2019-04-11T06:48:40.034Z,52.00
2019-04-11T06:51:11.523Z,51.50
2019-04-11T06:53:42.040Z,51.10
2019-04-11T06:56:12.536Z,51.20
2019-04-11T06:58:43.715Z,51.80
2019-04-11T07:01:14.042Z,51.70
2019-04-11T07:03:44.982Z,53.10
2019-04-11T07:06:15.399Z,52.80
2019-04-11T07:08:45.563Z,53.50
2019-04-11T07:11:17.808Z,51.50
2019-04-11T07:13:47.918Z,52.00
2019-04-11T07:16:18.409Z,51.60
2019-04-11T07:18:48.655Z,48.70
2019-04-11T07:21:17.119Z,50.30
2019-04-11T07:23:47.202Z,51.00
2019-04-11T07:26:17.402Z,46.60
2019-04-11T07:28:47.967Z,48.80
2019-04-11T07:31:19.291Z,49.50
2019-04-11T07:33:49.662Z,50.00
2019-04-11T07:36:21.030Z,48.10
2019-04-11T07:38:52.312Z,44.90
2019-04-11T07:41:23.878Z,44.80
2019-04-11T07:43:52.452Z,47.10
2019-04-11T07:46:22.536Z,48.10
2019-04-11T07:48:51.118Z,49.00
2019-04-11T07:51:21.239Z,50.20
2019-04-11T07:53:50.368Z,52.10
2019-04-11T07:56:20.856Z,55.40
2019-04-11T07:58:51.013Z,57.40
2019-04-11T08:01:21.209Z,57.40
2019-04-11T08:03:51.350Z,58.00
2019-04-11T08:06:22.289Z,59.30
2019-04-11T08:08:52.522Z,58.00
2019-04-11T08:11:23.469Z,58.10
2019-04-11T08:13:55.121Z,56.50
2019-04-11T08:16:25.369Z,56.30
2019-04-11T08:18:55.402Z,55.00
2019-04-11T08:21:26.176Z,55.00
2019-04-11T08:23:56.386Z,55.50
2019-04-11T08:26:26.426Z,56.10
2019-04-11T08:29:05.300Z,56.80
2019-04-11T08:31:26.640Z,55.10
2019-04-11T08:33:57.194Z,54.80
2019-04-11T08:36:27.346Z,50.20
2019-04-11T08:41:30.286Z,50.10
2019-04-11T08:43:59.443Z,54.40
2019-04-11T08:46:30.845Z,53.60
2019-04-11T08:49:01.548Z,54.00
2019-04-11T08:51:32.003Z,53.60
2019-04-11T08:54:02.165Z,53.20
2019-04-11T08:56:31.342Z,52.20
2019-04-11T08:59:04.865Z,53.00
2019-04-11T09:01:33.447Z,52.00
2019-04-11T09:04:07.310Z,52.40
2019-04-11T09:06:34.718Z,53.60
2019-04-11T09:09:04.932Z,54.40
2019-04-11T09:11:36.656Z,53.50
2019-04-11T09:14:08.090Z,53.30
2019-04-11T09:16:39.549Z,53.70
2019-04-11T09:19:10.463Z,52.00
2019-04-11T09:21:41.038Z,51.60
2019-04-11T09:24:11.078Z,50.30
2019-04-11T09:26:44.333Z,50.40
2019-04-11T09:29:13.599Z,52.10
2019-04-11T09:31:43.986Z,52.20
2019-04-11T09:34:14.438Z,52.20
2019-04-11T09:36:57.502Z,52.10
2019-04-11T09:39:28.798Z,51.80
2019-04-11T09:41:58.917Z,52.00
2019-04-11T09:44:28.987Z,51.40
2019-04-11T09:46:59.231Z,51.60
2019-04-11T09:49:29.304Z,52.50
2019-04-11T09:52:00.339Z,46.50
2019-04-11T09:54:30.598Z,45.00
2019-04-11T09:57:00.650Z,45.20
2019-04-11T09:59:31.487Z,46.00
2019-04-11T10:02:02.456Z,47.20
2019-04-11T10:04:33.843Z,47.80
2019-04-11T10:07:04.008Z,49.20
2019-04-11T10:09:34.055Z,48.60
2019-04-11T10:12:04.505Z,47.60
2019-04-11T10:14:33.477Z,47.70
2019-04-11T10:17:04.571Z,47.10
2019-04-11T10:19:35.912Z,48.40
2019-04-11T10:22:06.877Z,48.80
2019-04-11T10:24:37.096Z,50.30
2019-04-11T10:27:07.138Z,47.00
2019-04-11T10:29:37.183Z,46.10
2019-04-11T10:32:07.226Z,46.00
2019-04-11T10:34:37.489Z,45.70
2019-04-11T10:37:07.601Z,44.90
2019-04-11T10:39:37.678Z,44.40
2019-04-11T10:42:08.561Z,44.50
2019-04-11T10:44:38.985Z,44.00
2019-04-11T10:47:10.194Z,44.10
2019-04-11T10:49:40.242Z,43.40
2019-04-11T10:52:10.294Z,43.00
2019-04-11T10:54:40.793Z,43.10
2019-04-11T10:57:11.903Z,43.70
2019-04-11T10:59:42.915Z,45.20
2019-04-11T11:02:13.119Z,45.80
2019-04-11T11:04:43.179Z,45.30
2019-04-11T11:07:13.037Z,46.00
2019-04-11T11:09:44.354Z,46.00
2019-04-11T11:12:14.498Z,47.30
2019-04-11T11:14:45.030Z,46.70
2019-04-11T11:17:28.872Z,48.50
2019-04-11T11:19:59.642Z,47.50
2019-04-11T11:22:18.879Z,47.50
2019-04-11T11:24:48.923Z,46.30
2019-04-11T11:27:20.073Z,47.10
2019-04-11T11:29:51.534Z,46.30
2019-04-11T11:32:21.026Z,46.60
2019-04-11T11:34:53.343Z,46.30
2019-04-11T11:37:22.979Z,45.80
2019-04-11T11:39:53.182Z,44.80
2019-04-11T11:42:23.266Z,45.20
2019-04-11T11:44:53.311Z,43.40
2019-04-11T11:47:23.716Z,45.00
2019-04-11T11:49:58.677Z,44.60
2019-04-11T11:52:26.847Z,45.50
2019-04-11T11:54:55.740Z,45.30
2019-04-11T11:57:26.642Z,44.90
2019-04-11T11:59:56.739Z,45.40
2019-04-11T12:02:26.798Z,44.30
2019-04-11T12:04:57.010Z,45.00
2019-04-11T12:07:27.074Z,44.30
2019-04-11T12:09:57.126Z,45.00
2019-04-11T12:12:27.403Z,44.40
2019-04-11T12:14:57.502Z,44.10
2019-04-11T12:17:29.307Z,43.90
2019-04-11T12:20:06.437Z,44.40
2019-04-11T12:22:31.139Z,44.20
2019-04-11T12:25:01.318Z,45.60
2019-04-11T12:27:31.370Z,44.60
2019-04-11T12:30:05.358Z,43.60
2019-04-11T12:32:33.263Z,44.40
2019-04-11T12:35:04.075Z,44.70
2019-04-11T12:37:34.134Z,43.10
2019-04-11T12:40:04.179Z,43.00
2019-04-11T12:42:34.359Z,43.70
2019-04-11T12:45:06.445Z,44.30
2019-04-11T12:47:38.336Z,42.90
2019-04-11T12:50:09.475Z,43.80
2019-04-11T12:52:39.516Z,44.10
2019-04-11T12:55:10.333Z,43.50
2019-04-11T12:57:40.433Z,44.00
2019-04-11T13:00:11.340Z,44.80
2019-04-11T13:02:41.375Z,44.20
2019-04-11T13:05:11.577Z,45.70
2019-04-11T13:07:41.709Z,45.10
2019-04-11T13:10:12.510Z,43.70
2019-04-11T13:12:42.551Z,44.10
2019-04-11T13:15:12.896Z,47.10
2019-04-11T13:17:43.066Z,47.00
2019-04-11T13:20:13.175Z,47.10
2019-04-11T13:22:42.334Z,47.90
2019-04-11T13:25:12.557Z,46.80
2019-04-11T13:27:42.612Z,47.70
2019-04-11T13:30:13.107Z,46.80
2019-04-11T13:32:43.147Z,47.40
2019-04-11T13:35:13.320Z,47.40
2019-04-11T13:37:43.405Z,46.80
2019-04-11T13:40:13.498Z,46.20
2019-04-11T13:42:43.566Z,45.00
2019-04-11T13:45:13.154Z,44.90
2019-04-11T13:47:43.198Z,43.90
2019-04-11T13:50:16.924Z,44.10
2019-04-11T13:52:44.101Z,44.50
2019-04-11T13:55:15.063Z,44.80
2019-04-11T13:57:45.166Z,45.20
2019-04-11T14:00:16.079Z,46.30
2019-04-11T14:02:51.234Z,46.80
2019-04-11T14:05:17.909Z,45.60
2019-04-11T14:07:48.231Z,45.30
2019-04-11T14:10:18.229Z,44.60
2019-04-11T14:12:46.768Z,45.40
2019-04-11T14:15:16.836Z,45.10
2019-04-11T14:17:46.895Z,45.90
2019-04-11T14:20:28.614Z,46.70
2019-04-11T14:22:49.215Z,47.50
2019-04-11T14:25:19.278Z,48.50
2019-04-11T14:27:49.307Z,47.20
2019-04-11T14:30:19.516Z,46.80
2019-04-11T14:32:48.915Z,47.30
2019-04-11T14:35:18.972Z,46.50
2019-04-11T14:37:49.015Z,46.40
2019-04-11T14:40:19.336Z,47.10
2019-04-11T14:42:49.398Z,47.30
2019-04-11T14:45:19.478Z,48.40
2019-04-11T14:47:49.532Z,48.80
2019-04-11T14:50:19.876Z,49.70
2019-04-11T14:52:49.925Z,49.50
2019-04-11T14:55:19.959Z,49.60
2019-04-11T14:57:53.600Z,50.50
2019-04-11T15:00:24.256Z,50.60
2019-04-11T15:02:54.208Z,51.00
2019-04-11T15:05:24.262Z,52.10
2019-04-11T15:07:52.843Z,52.50
2019-04-11T15:10:22.899Z,52.30
2019-04-11T15:12:52.544Z,51.70
2019-04-11T15:15:22.629Z,51.20
2019-04-11T15:17:51.040Z,52.30
2019-04-11T15:20:21.132Z,53.20
2019-04-11T15:22:51.199Z,53.30
2019-04-11T15:25:21.240Z,53.50
2019-04-11T15:27:51.298Z,53.50
2019-04-11T15:30:21.338Z,53.90
2019-04-11T15:32:51.430Z,52.90
2019-04-11T15:35:22.736Z,53.10
2019-04-11T15:37:52.788Z,52.80
2019-04-11T15:40:21.218Z,52.70
2019-04-11T15:42:51.546Z,53.60
2019-04-11T15:45:21.602Z,54.10
2019-04-11T15:47:51.650Z,53.90
2019-04-11T15:50:21.710Z,53.80
2019-04-11T15:55:30.410Z,54.30
2019-04-11T15:57:58.807Z,55.40
2019-04-11T16:00:28.874Z,56.10
2019-04-11T16:02:58.939Z,56.30
2019-04-11T16:05:31.486Z,56.50
2019-04-11T16:08:00.738Z,56.50
2019-04-11T16:10:30.770Z,56.60
2019-04-11T16:13:00.826Z,56.50
2019-04-11T16:15:31.177Z,56.40
2019-04-11T16:18:01.314Z,57.10
2019-04-11T16:20:29.783Z,57.10
2019-04-11T16:22:59.879Z,56.80
2019-04-11T16:25:29.279Z,57.00
2019-04-11T16:27:59.812Z,57.20
2019-04-11T16:30:30.099Z,56.30
2019-04-11T16:33:00.147Z,56.60
2019-04-11T16:35:32.936Z,56.50
2019-04-11T16:38:02.001Z,56.10
2019-04-11T16:40:32.050Z,56.60
2019-04-11T16:43:02.118Z,56.90
2019-04-11T16:45:32.172Z,56.90
2019-04-11T16:48:02.287Z,56.90
2019-04-11T16:50:30.694Z,56.40
2019-04-11T16:52:59.101Z,55.40
2019-04-11T16:55:27.595Z,54.00
2019-04-11T16:57:56.079Z,53.30
2019-04-11T17:00:24.646Z,54.00
2019-04-11T17:02:54.943Z,54.50
2019-04-11T17:05:24.047Z,55.20
2019-04-11T17:07:56.154Z,55.70
2019-04-11T17:10:26.868Z,55.80
2019-04-11T17:12:56.083Z,56.30
2019-04-11T17:15:25.170Z,56.70
2019-04-11T17:17:53.707Z,56.90
2019-04-11T17:20:22.143Z,57.00
2019-04-11T17:22:50.550Z,57.10
2019-04-11T17:25:19.833Z,57.00
2019-04-11T17:27:50.648Z,57.30
2019-04-11T17:30:18.870Z,57.90
2019-04-11T17:32:47.301Z,57.60
2019-04-11T17:35:15.704Z,57.50
2019-04-11T17:37:44.115Z,57.60
2019-04-11T17:40:12.534Z,57.90
2019-04-11T17:42:43.850Z,57.60
2019-04-11T17:45:11.427Z,57.90
2019-04-11T17:47:39.840Z,57.80
2019-04-11T17:50:08.600Z,57.60
2019-04-11T17:52:36.988Z,57.80
2019-04-11T17:55:06.554Z,58.10
2019-04-11T17:57:34.946Z,58.00
2019-04-11T18:00:04.551Z,58.70
2019-04-11T18:02:32.942Z,59.10
2019-04-11T18:05:01.339Z,59.40
2019-04-11T18:07:29.753Z,59.70
2019-04-11T18:09:58.155Z,60.00
2019-04-11T18:12:26.828Z,60.70
2019-04-11T18:14:55.342Z,60.10
2019-04-11T18:17:23.870Z,60.30
2019-04-11T18:22:30.011Z,60.40
2019-04-11T18:24:58.499Z,60.60
2019-04-11T18:27:26.915Z,60.70
2019-04-11T18:29:55.790Z,60.60
2019-04-11T18:32:24.176Z,60.70
2019-04-11T18:34:52.581Z,60.80
2019-04-11T18:37:21.059Z,61.00
2019-04-11T18:39:49.647Z,61.40
2019-04-11T18:42:18.110Z,61.70
2019-04-11T18:44:46.580Z,62.00
2019-04-11T18:47:15.079Z,62.50
2019-04-11T18:49:43.470Z,62.50
2019-04-11T18:52:19.683Z,62.40
2019-04-11T18:54:42.006Z,62.70
2019-04-11T18:57:10.422Z,62.70
2019-04-11T18:59:38.848Z,62.30
2019-04-11T19:02:09.938Z,62.40
2019-04-11T19:04:42.031Z,62.20
2019-04-11T19:07:08.304Z,62.50
2019-04-11T19:09:36.728Z,62.60
2019-04-11T19:12:06.284Z,62.70
2019-04-11T19:14:34.744Z,62.50
2019-04-11T19:17:03.218Z,62.50
2019-04-11T19:19:31.646Z,62.60
2019-04-11T19:22:00.153Z,62.60
2019-04-11T19:24:35.352Z,62.20
2019-04-11T19:26:58.666Z,62.20
2019-04-11T19:29:27.059Z,62.20
2019-04-11T19:31:55.509Z,62.20
2019-04-11T19:34:23.941Z,61.90
2019-04-11T19:36:52.562Z,62.20
2019-04-11T19:39:23.170Z,62.50
2019-04-11T19:41:51.204Z,62.40
2019-04-11T19:44:19.999Z,62.80
2019-04-11T19:46:50.951Z,62.70
2019-04-11T19:49:18.801Z,62.70
2019-04-11T19:51:47.206Z,62.60
2019-04-11T19:56:53.569Z,62.20
2019-04-11T19:59:22.018Z,62.30
2019-04-11T20:01:50.768Z,62.20
2019-04-11T20:04:21.755Z,62.10
2019-04-11T20:06:50.744Z,62.30
2019-04-11T20:09:19.186Z,62.50
2019-04-11T20:11:47.587Z,62.70
2019-04-11T20:14:16.007Z,63.00
2019-04-11T20:16:54.781Z,63.50
2019-04-11T20:19:27.157Z,63.80
2019-04-11T20:21:53.366Z,64.50
2019-04-11T20:24:21.781Z,64.30
2019-04-11T20:26:53.311Z,64.50
2019-04-11T20:29:22.111Z,64.80
2019-04-11T20:31:50.675Z,64.90
2019-04-11T20:34:27.367Z,65.40
2019-04-11T20:36:55.129Z,65.90
2019-04-11T20:39:23.598Z,66.10
2019-04-11T20:44:20.038Z,66.40
2019-04-11T20:47:00.104Z,66.70
2019-04-11T20:49:25.931Z,66.90
2019-04-11T20:51:54.386Z,67.10
2019-04-11T20:54:22.778Z,67.30
2019-04-11T20:56:57.166Z,67.40
2019-04-11T20:59:34.575Z,67.60
2019-04-11T21:01:57.318Z,67.60
2019-04-11T21:04:25.797Z,67.80
2019-04-11T21:06:55.458Z,68.00
2019-04-11T21:09:23.859Z,68.30
2019-04-11T21:11:52.273Z,68.20
2019-04-11T21:14:20.698Z,68.10
2019-04-11T21:16:52.290Z,68.30
2019-04-11T21:19:23.281Z,68.30
2019-04-11T21:21:53.295Z,68.90
2019-04-11T21:24:20.989Z,68.70
2019-04-11T21:26:50.930Z,68.70
2019-04-11T21:29:19.328Z,68.90
2019-04-11T21:31:47.730Z,69.10
2019-04-11T21:34:16.159Z,69.10
2019-04-11T21:36:44.683Z,69.10
2019-04-11T21:39:13.088Z,69.40
2019-04-11T21:41:41.514Z,69.00
2019-04-11T21:44:09.952Z,69.20
2019-04-11T21:46:40.532Z,69.20
2019-04-11T21:49:08.497Z,69.30
2019-04-11T21:51:41.397Z,69.60
2019-04-11T21:54:07.108Z,69.50
2019-04-11T21:56:35.546Z,69.80
2019-04-11T21:59:03.938Z,70.00
2019-04-11T22:01:33.892Z,69.90
2019-04-11T22:04:02.318Z,69.70
2019-04-11T22:06:31.140Z,69.70
2019-04-11T22:08:59.711Z,69.80
2019-04-11T22:11:28.131Z,69.90
2019-04-11T22:13:56.558Z,69.70
2019-04-11T22:16:25.003Z,69.80
2019-04-11T22:18:53.441Z,69.50
2019-04-11T22:21:21.877Z,69.50
2019-04-11T22:23:50.288Z,70.30
2019-04-11T22:26:18.715Z,69.60
2019-04-11T22:28:47.106Z,69.80
2019-04-11T22:31:15.530Z,69.70
2019-04-11T22:33:45.621Z,69.80
2019-04-11T22:36:14.135Z,69.50
2019-04-11T22:38:42.546Z,69.40
2019-04-11T22:41:10.967Z,69.50
2019-04-11T22:43:39.389Z,69.20
2019-04-11T22:46:08.582Z,69.30
2019-04-11T22:48:39.058Z,69.20
2019-04-11T22:51:08.890Z,69.50
2019-04-11T22:53:38.312Z,69.60
2019-04-11T22:56:08.949Z,69.50
2019-04-11T22:58:36.842Z,69.50
2019-04-11T23:01:05.462Z,69.60
2019-04-11T23:03:35.499Z,69.90
2019-04-11T23:06:04.070Z,70.00
2019-04-11T23:08:32.494Z,70.20
2019-04-11T23:11:00.914Z,70.00
2019-04-11T23:13:29.334Z,69.90
2019-04-11T23:15:57.758Z,69.90
2019-04-11T23:18:26.162Z,69.70
2019-04-11T23:20:55.982Z,70.00
2019-04-11T23:23:26.700Z,69.80
2019-04-11T23:25:55.094Z,70.00
2019-04-11T23:28:23.579Z,70.20
2019-04-11T23:30:51.983Z,70.30
2019-04-11T23:33:21.437Z,70.20
2019-04-11T23:35:51.192Z,70.30
2019-04-11T23:38:23.669Z,70.60
2019-04-11T23:40:51.209Z,70.70
2019-04-11T23:43:20.659Z,70.60
2019-04-11T23:45:51.188Z,70.60
2019-04-11T23:48:19.398Z,70.30
2019-04-11T23:50:47.820Z,69.70
2019-04-11T23:53:16.224Z,69.50
2019-04-11T23:55:44.622Z,69.50
2019-04-11T23:58:13.113Z,69.50
